Huvudsida
METAR-TAF:

METAR-TAF

Flygplatser :

Mehamns flygplats

Gamvik, Norge

latitud: 71-02N, longitud: 027-50E, höjd: 1 m

Aktuellt väderrapport

Denna rapport gjordes för 1 timme och 39 minuter sedan, klockan 17:50 UTC
Vind 4 kt från nord/nordväst
Temperatur 9°C
Fuktighet 76%
Tryck 1009 hPa
Sikt 10 km eller mer
Inga moln under 1 500 m eller inga cumulonimbus

METAR: ENMH 251750Z 34004KT CAVOK 09/05 Q1009

Tid: 21:29 (19:29 UTC)


TAF: saknas

Aktuella väderrapporter och prognoser från 4000 flygplatser (METAR- och TAF-rapporter).

De tillgängliga stationerna syns som gula och röda prickar på kartan.

För musen över prickarna för att se namnen på stationerna.

Klicka sedan för att få väderrapporter och prognoser.

För att ändra kartan: Klicka på de gröna knapparna med ett svart kors på för att zooma in; den gröna knappen med ett streck på för att zooma ut; eller på de gröna pilarna för angränsande kartor.


METAR-TAF: